createdAt,value
2023-11-18T00:00:18.190Z,17.60
2023-11-18T00:05:25.157Z,16.10
2023-11-18T00:10:31.798Z,15.20
2023-11-18T00:15:37.561Z,14.30
2023-11-18T00:20:44.418Z,13.60
2023-11-18T00:25:50.407Z,15.50
2023-11-18T00:30:56.539Z,12.20
2023-11-18T00:36:02.592Z,11.90
2023-11-18T00:41:10.510Z,10.20
2023-11-18T00:46:16.288Z,13.50
2023-11-18T00:51:22.052Z,17.00
2023-11-18T00:56:28.896Z,13.00
2023-11-18T01:01:34.718Z,14.90
2023-11-18T01:06:40.754Z,15.20
2023-11-18T01:12:07.208Z,14.20
2023-11-18T01:17:13.020Z,12.60
2023-11-18T01:27:25.739Z,11.70
2023-11-18T01:32:32.269Z,15.70
2023-11-18T01:37:38.091Z,10.00
2023-11-18T01:42:47.662Z,11.80
2023-11-18T01:47:53.668Z,10.40
2023-11-18T01:53:02.447Z,10.80
2023-11-18T01:58:12.471Z,12.70
2023-11-18T02:03:18.302Z,8.60
2023-11-18T02:08:26.073Z,10.60
2023-11-18T02:13:38.459Z,7.60
2023-11-18T02:18:47.987Z,8.90
2023-11-18T02:23:54.585Z,12.70
2023-11-18T02:34:17.819Z,9.40
2023-11-18T02:39:35.175Z,13.20
2023-11-18T02:44:41.823Z,13.10
2023-11-18T02:49:50.269Z,12.60
2023-11-18T02:54:56.201Z,12.50
2023-11-18T03:00:05.757Z,13.20
2023-11-18T03:05:13.226Z,9.90
2023-11-18T03:10:23.497Z,11.70
2023-11-18T03:15:29.468Z,10.80
2023-11-18T03:20:36.110Z,12.30
2023-11-18T03:25:41.891Z,11.10
2023-11-18T03:30:48.262Z,10.10
2023-11-18T03:35:54.105Z,8.70
2023-11-18T03:41:00.563Z,9.90
2023-11-18T03:51:10.958Z,7.50
2023-11-18T03:56:20.640Z,7.10
2023-11-18T04:01:28.708Z,6.50
2023-11-18T04:06:34.493Z,7.70
2023-11-18T04:11:41.855Z,5.50
2023-11-18T04:16:48.711Z,7.60
2023-11-18T04:21:54.460Z,8.80
2023-11-18T04:27:01.070Z,7.50
2023-11-18T04:37:11.515Z,7.60
2023-11-18T04:42:17.937Z,8.80
2023-11-18T04:47:23.740Z,7.70
2023-11-18T04:52:29.781Z,6.90
2023-11-18T04:57:36.253Z,8.20
2023-11-18T05:02:43.308Z,8.90
2023-11-18T05:07:49.136Z,9.80
2023-11-18T05:12:57.283Z,10.10
2023-11-18T05:18:03.131Z,9.50
2023-11-18T05:23:11.470Z,10.00
2023-11-18T05:28:18.368Z,9.20
2023-11-18T05:33:24.170Z,8.50
2023-11-18T05:38:33.810Z,7.50
2023-11-18T05:43:42.393Z,7.70
2023-11-18T05:48:49.749Z,8.20
2023-11-18T05:53:56.538Z,8.50
2023-11-18T05:59:04.700Z,6.80
2023-11-18T06:04:11.200Z,6.20
2023-11-18T06:09:22.464Z,6.50
2023-11-18T06:14:28.991Z,9.60
2023-11-18T06:19:34.996Z,6.70
2023-11-18T06:24:40.800Z,4.50
2023-11-18T06:29:46.904Z,4.80
2023-11-18T06:34:52.701Z,5.90
2023-11-18T06:39:58.472Z,5.30
2023-11-18T06:45:07.206Z,6.00
2023-11-18T06:50:15.585Z,5.90
2023-11-18T06:55:21.586Z,6.10
2023-11-18T07:00:29.629Z,6.80
2023-11-18T07:05:35.570Z,8.40
2023-11-18T07:10:42.601Z,11.20
2023-11-18T07:15:48.412Z,10.30
2023-11-18T07:20:54.238Z,11.90
2023-11-18T07:26:00.109Z,12.40
2023-11-18T07:31:06.650Z,13.80
2023-11-18T07:36:13.148Z,14.90
2023-11-18T07:46:32.588Z,18.50
2023-11-18T07:51:38.775Z,21.10
2023-11-18T07:56:49.405Z,24.60
2023-11-18T08:01:55.782Z,23.90
2023-11-18T08:07:01.635Z,34.30
2023-11-18T08:12:10.561Z,20.30
2023-11-18T08:17:16.394Z,23.90
2023-11-18T08:22:24.438Z,21.70
2023-11-18T08:27:30.534Z,19.40
2023-11-18T08:32:40.165Z,19.60
2023-11-18T08:37:48.971Z,21.10
2023-11-18T08:42:57.425Z,16.50
2023-11-18T08:48:08.564Z,23.40
2023-11-18T08:53:20.005Z,18.00
2023-11-18T08:58:29.644Z,18.60
2023-11-18T09:03:44.901Z,16.00
2023-11-18T09:08:54.834Z,20.10
2023-11-18T09:14:02.616Z,20.10
2023-11-18T09:19:09.642Z,13.90
2023-11-18T09:24:16.489Z,12.30
2023-11-18T09:29:25.364Z,10.00
2023-11-18T09:34:34.851Z,12.30
2023-11-18T09:39:47.375Z,12.70
2023-11-18T09:44:55.065Z,13.90
2023-11-18T09:50:04.931Z,14.80
2023-11-18T09:55:21.174Z,14.40
2023-11-18T10:00:34.295Z,15.50
2023-11-18T10:05:43.358Z,13.20
2023-11-18T10:10:50.831Z,12.60
2023-11-18T10:15:58.941Z,13.30
2023-11-18T10:21:09.634Z,11.00
2023-11-18T10:26:16.293Z,8.10
2023-11-18T10:31:25.560Z,12.70
2023-11-18T10:36:34.694Z,12.40
2023-11-18T10:41:49.375Z,10.20
2023-11-18T10:47:00.470Z,10.50
2023-11-18T10:52:10.172Z,8.90
2023-11-18T10:57:16.388Z,9.60
2023-11-18T11:02:25.801Z,8.90
2023-11-18T11:07:35.663Z,11.30
2023-11-18T11:12:53.438Z,14.90
2023-11-18T11:18:10.405Z,14.10
2023-11-18T11:23:24.285Z,13.10
2023-11-18T11:28:45.441Z,21.80
2023-11-18T11:34:01.060Z,41.90
2023-11-18T11:39:12.166Z,14.90
2023-11-18T11:44:20.833Z,25.70
2023-11-18T11:49:31.388Z,20.90
2023-11-18T11:54:46.345Z,13.40
2023-11-18T12:00:16.592Z,16.60
2023-11-18T12:05:27.913Z,18.90
2023-11-18T12:10:37.530Z,21.10
2023-11-18T12:15:59.010Z,18.00
2023-11-18T12:21:05.729Z,10.20
2023-11-18T12:26:45.276Z,9.40
2023-11-18T12:31:52.020Z,8.10
2023-11-18T12:37:49.107Z,9.90
2023-11-18T12:43:07.870Z,12.50
2023-11-18T12:48:19.572Z,14.10
2023-11-18T12:53:27.757Z,11.90
2023-11-18T12:58:34.939Z,10.90
2023-11-18T13:03:42.136Z,12.70
2023-11-18T13:08:48.115Z,9.10
2023-11-18T13:13:55.737Z,13.40
2023-11-18T13:19:01.599Z,12.00
2023-11-18T13:24:09.676Z,16.70
2023-11-18T13:29:17.353Z,12.50
2023-11-18T13:34:23.545Z,10.10
2023-11-18T13:39:29.764Z,14.00
2023-11-18T13:44:40.733Z,12.10
2023-11-18T13:49:48.729Z,12.70
2023-11-18T13:54:57.436Z,12.40
2023-11-18T14:00:07.893Z,14.60
2023-11-18T14:05:22.945Z,12.30
2023-11-18T14:10:29.516Z,17.60
2023-11-18T14:20:41.727Z,31.30
2023-11-18T14:25:47.848Z,21.40
2023-11-18T14:30:53.949Z,24.00
2023-11-18T14:35:59.720Z,35.60
2023-11-18T14:41:05.878Z,26.50
2023-11-18T14:46:11.942Z,37.20
2023-11-18T14:51:18.455Z,30.80
2023-11-18T14:56:24.593Z,24.30
2023-11-18T15:01:30.566Z,18.50
2023-11-18T15:06:36.339Z,14.70
2023-11-18T15:11:42.097Z,18.10
2023-11-18T15:16:48.231Z,20.60
2023-11-18T15:21:53.971Z,27.30
2023-11-18T15:27:01.366Z,27.10
2023-11-18T15:32:09.676Z,24.40
2023-11-18T15:37:15.667Z,22.40
2023-11-18T15:42:21.460Z,20.40
2023-11-18T15:47:27.294Z,21.10
2023-11-18T15:52:35.612Z,25.10
2023-11-18T15:57:43.518Z,27.20
2023-11-18T16:02:52.168Z,23.40
2023-11-18T16:07:59.739Z,22.00
2023-11-18T16:13:05.509Z,26.50
2023-11-18T16:18:11.331Z,25.20
2023-11-18T16:23:17.099Z,29.80
2023-11-18T16:28:22.842Z,22.10
2023-11-18T16:33:28.612Z,22.80
2023-11-18T16:38:34.492Z,23.60
2023-11-18T16:43:41.144Z,24.00
2023-11-18T16:53:53.524Z,22.70
2023-11-18T16:59:00.972Z,66.60
2023-11-18T17:04:08.773Z,37.20
2023-11-18T17:09:14.818Z,39.50
2023-11-18T17:14:20.716Z,33.00
2023-11-18T17:19:27.455Z,28.10
2023-11-18T17:24:34.009Z,29.00
2023-11-18T17:29:39.729Z,64.80
2023-11-18T17:34:45.564Z,28.60
2023-11-18T17:39:51.322Z,22.40
2023-11-18T17:44:57.587Z,24.80
2023-11-18T17:50:09.467Z,25.60
2023-11-18T17:55:16.096Z,27.00
2023-11-18T18:00:24.803Z,33.40
2023-11-18T18:05:31.237Z,31.70
2023-11-18T18:10:37.212Z,36.00
2023-11-18T18:15:43.203Z,83.50
2023-11-18T18:20:50.604Z,53.10
2023-11-18T18:25:56.726Z,36.80
2023-11-18T18:31:02.631Z,43.50
2023-11-18T18:36:11.299Z,35.20
2023-11-18T18:41:17.019Z,51.90
2023-11-18T18:46:23.415Z,114.10
2023-11-18T18:51:29.234Z,55.70
2023-11-18T18:56:35.245Z,40.40
2023-11-18T19:01:41.186Z,76.20
2023-11-18T19:06:47.920Z,75.90
2023-11-18T19:16:58.523Z,33.30
2023-11-18T19:22:07.510Z,36.10
2023-11-18T19:27:15.596Z,40.80
2023-11-18T19:32:21.349Z,32.40
2023-11-18T19:37:27.280Z,41.80
2023-11-18T19:42:33.729Z,31.00
2023-11-18T19:47:40.015Z,29.90
2023-11-18T19:52:46.242Z,25.60
2023-11-18T19:57:51.942Z,25.20
2023-11-18T20:02:57.920Z,36.40
2023-11-18T20:08:03.844Z,31.40
2023-11-18T20:13:09.677Z,31.20
2023-11-18T20:18:15.529Z,27.70
2023-11-18T20:23:22.811Z,28.50
2023-11-18T20:28:28.659Z,35.00
2023-11-18T20:33:42.399Z,32.60
2023-11-18T20:38:48.936Z,20.60
2023-11-18T20:43:54.663Z,20.30
2023-11-18T20:49:00.531Z,20.50
2023-11-18T20:54:08.586Z,17.40
2023-11-18T20:59:14.481Z,16.10
2023-11-18T21:04:21.185Z,17.80
2023-11-18T21:09:28.295Z,40.20
2023-11-18T21:14:35.121Z,41.50
2023-11-18T21:19:41.789Z,25.50
2023-11-18T21:29:51.971Z,26.90
2023-11-18T21:34:57.972Z,22.50
2023-11-18T21:40:06.154Z,19.00
2023-11-18T21:45:15.183Z,19.40
2023-11-18T21:50:22.436Z,20.30
2023-11-18T21:55:30.506Z,18.00
2023-11-18T22:00:45.048Z,20.00
2023-11-18T22:05:51.985Z,18.50
2023-11-18T22:10:59.531Z,20.90
2023-11-18T22:16:06.282Z,21.40
2023-11-18T22:26:19.370Z,12.80
2023-11-18T22:31:27.182Z,13.90
2023-11-18T22:36:33.540Z,16.90
2023-11-18T22:41:39.440Z,16.80
2023-11-18T22:46:45.342Z,16.50
2023-11-18T22:51:52.235Z,17.00
2023-11-18T23:02:05.045Z,13.30
2023-11-18T23:07:11.093Z,17.90
2023-11-18T23:12:16.817Z,20.60
2023-11-18T23:17:24.652Z,34.50
2023-11-18T23:22:30.462Z,27.50
2023-11-18T23:27:38.081Z,22.40
2023-11-18T23:32:44.211Z,20.90
2023-11-18T23:37:52.430Z,19.00
2023-11-18T23:42:58.640Z,28.60
2023-11-18T23:48:04.671Z,41.70
2023-11-18T23:53:11.116Z,41.30
2023-11-18T23:58:16.951Z,41.10
